createdAt,value
2019-05-01T00:02:01.329Z,35.52
2019-05-01T00:04:37.937Z,39.13
2019-05-01T00:07:07.720Z,34.77
2019-05-01T00:09:34.082Z,34.80
2019-05-01T00:11:59.654Z,36.68
2019-05-01T00:14:25.526Z,33.57
2019-05-01T00:16:51.038Z,36.97
2019-05-01T00:19:16.817Z,33.30
2019-05-01T00:21:42.298Z,33.17
2019-05-01T00:24:07.773Z,36.48
2019-05-01T00:26:33.249Z,35.92
2019-05-01T00:28:58.734Z,32.77
2019-05-01T00:31:24.145Z,33.00
2019-05-01T00:33:49.587Z,35.15
2019-05-01T00:36:15.056Z,36.50
2019-05-01T00:38:40.533Z,36.67
2019-05-01T00:41:06.001Z,35.58
2019-05-01T00:43:31.750Z,35.17
2019-05-01T00:45:57.332Z,35.27
2019-05-01T00:48:22.787Z,36.63
2019-05-01T00:50:51.449Z,36.83
2019-05-01T00:53:17.017Z,34.60
2019-05-01T00:55:51.837Z,37.53
2019-05-01T00:58:23.729Z,37.20
2019-05-01T01:01:08.341Z,40.00
2019-05-01T01:03:34.250Z,35.03
2019-05-01T01:05:59.575Z,41.40
2019-05-01T01:08:25.049Z,37.30
2019-05-01T01:10:50.740Z,38.23
2019-05-01T01:13:16.195Z,41.17
2019-05-01T01:15:41.575Z,36.37
2019-05-01T01:18:07.022Z,38.07
2019-05-01T01:20:32.483Z,36.97
2019-05-01T01:22:58.043Z,34.90
2019-05-01T01:25:23.509Z,37.40
2019-05-01T01:27:48.965Z,35.80
2019-05-01T01:30:15.026Z,39.13
2019-05-01T01:32:40.458Z,40.23
2019-05-01T01:35:06.643Z,34.80
2019-05-01T01:37:32.101Z,35.07
2019-05-01T01:39:57.951Z,32.23
2019-05-01T01:42:24.120Z,37.30
2019-05-01T01:44:56.200Z,34.83
2019-05-01T01:47:21.644Z,35.70
2019-05-01T01:49:47.096Z,36.07
2019-05-01T01:52:13.661Z,37.40
2019-05-01T01:54:39.395Z,35.63
2019-05-01T01:57:05.076Z,35.70
2019-05-01T01:59:31.559Z,35.27
2019-05-01T02:02:15.982Z,43.17
2019-05-01T02:04:52.706Z,37.67
2019-05-01T02:07:18.290Z,39.03
2019-05-01T02:09:43.795Z,38.97
2019-05-01T02:12:09.279Z,39.30
2019-05-01T02:14:34.855Z,38.07
2019-05-01T02:17:00.626Z,38.23
2019-05-01T02:19:26.384Z,37.53
2019-05-01T02:21:51.873Z,36.20
2019-05-01T02:24:17.305Z,36.23
2019-05-01T02:26:46.344Z,37.47
2019-05-01T02:29:29.779Z,39.13
2019-05-01T02:31:57.471Z,39.70
2019-05-01T02:34:25.923Z,41.67
2019-05-01T02:36:54.756Z,37.50
2019-05-01T02:39:24.895Z,40.30
2019-05-01T02:41:55.143Z,37.80
2019-05-01T02:44:31.979Z,41.07
2019-05-01T02:47:01.964Z,41.37
2019-05-01T02:49:43.792Z,38.00
2019-05-01T02:52:13.335Z,39.33
2019-05-01T02:54:40.640Z,40.60
2019-05-01T02:57:14.659Z,39.33
2019-05-01T02:59:43.980Z,39.67
2019-05-01T03:02:10.897Z,36.83
2019-05-01T03:04:37.096Z,41.43
2019-05-01T03:07:04.221Z,41.30
2019-05-01T03:09:30.772Z,40.47
2019-05-01T03:11:58.922Z,37.93
2019-05-01T03:14:28.903Z,42.53
2019-05-01T03:16:59.048Z,40.93
2019-05-01T03:19:44.852Z,42.90
2019-05-01T03:22:24.827Z,40.60
2019-05-01T03:24:50.283Z,40.47
2019-05-01T03:27:16.650Z,46.60
2019-05-01T03:29:42.583Z,45.63
2019-05-01T03:32:19.050Z,50.10
2019-05-01T03:34:35.232Z,43.37
2019-05-01T03:37:01.273Z,44.07
2019-05-01T03:39:27.049Z,43.33
2019-05-01T03:41:53.405Z,42.53
2019-05-01T03:44:20.151Z,42.27
2019-05-01T03:46:45.810Z,41.83
2019-05-01T03:49:12.150Z,44.20
2019-05-01T03:51:37.976Z,50.40
2019-05-01T03:54:04.386Z,58.10
2019-05-01T03:56:30.527Z,65.30
2019-05-01T03:58:56.177Z,71.87
2019-05-01T04:01:42.230Z,77.07
2019-05-01T04:04:11.618Z,97.23
2019-05-01T04:06:39.493Z,84.47
2019-05-01T04:09:05.912Z,88.50
2019-05-01T04:11:31.467Z,91.13
2019-05-01T04:13:58.253Z,92.87
2019-05-01T04:16:24.234Z,102.87
2019-05-01T04:18:50.087Z,102.27
2019-05-01T04:21:15.906Z,81.73
2019-05-01T04:23:43.620Z,108.47
2019-05-01T04:26:10.009Z,96.17
2019-05-01T04:29:03.930Z,94.20
2019-05-01T04:31:37.769Z,81.67
2019-05-01T04:34:07.425Z,98.23
2019-05-01T04:36:37.879Z,84.97
2019-05-01T04:39:04.798Z,87.97
2019-05-01T04:41:30.464Z,85.33
2019-05-01T04:43:56.006Z,83.80
2019-05-01T04:46:22.444Z,84.30
2019-05-01T04:48:47.895Z,95.03
2019-05-01T04:51:13.671Z,106.30
2019-05-01T04:53:39.113Z,104.67
2019-05-01T04:56:05.271Z,105.70
2019-05-01T04:58:31.407Z,95.30
2019-05-01T05:00:57.571Z,95.73
2019-05-01T05:03:25.113Z,91.10
2019-05-01T05:05:51.170Z,100.07
2019-05-01T05:08:17.964Z,172.60
2019-05-01T05:10:43.639Z,119.27
2019-05-01T05:13:29.424Z,145.23
2019-05-01T05:16:19.519Z,92.67
2019-05-01T05:18:45.269Z,97.37
2019-05-01T05:21:12.342Z,94.50
2019-05-01T05:23:38.953Z,92.03
2019-05-01T05:26:04.822Z,92.27
2019-05-01T05:28:31.503Z,89.77
2019-05-01T05:30:58.181Z,91.37
2019-05-01T05:33:25.058Z,87.23
2019-05-01T05:35:52.843Z,91.27
2019-05-01T05:38:33.508Z,86.20
2019-05-01T05:41:01.260Z,93.80
2019-05-01T05:43:26.703Z,86.33
2019-05-01T05:45:52.248Z,90.83
2019-05-01T05:48:17.988Z,87.67
2019-05-01T05:50:58.577Z,102.03
2019-05-01T05:53:29.950Z,96.43
2019-05-01T05:55:59.901Z,94.80
2019-05-01T05:58:37.028Z,99.60
2019-05-01T06:01:13.270Z,92.63
2019-05-01T06:04:07.115Z,123.93
2019-05-01T06:06:47.970Z,100.93
2019-05-01T06:09:16.036Z,87.30
2019-05-01T06:12:17.045Z,91.87
2019-05-01T06:14:51.346Z,81.77
2019-05-01T06:17:39.060Z,125.17
2019-05-01T06:20:29.850Z,97.67
2019-05-01T06:23:20.727Z,91.30
2019-05-01T06:25:54.191Z,100.33
2019-05-01T06:28:19.854Z,100.87
2019-05-01T06:30:47.004Z,112.90
2019-05-01T06:33:13.225Z,102.33
2019-05-01T06:35:39.417Z,101.80
2019-05-01T06:38:14.553Z,97.23
2019-05-01T06:40:44.677Z,111.13
2019-05-01T06:43:25.222Z,91.20
2019-05-01T06:45:53.382Z,101.83
2019-05-01T06:48:20.184Z,83.87
2019-05-01T06:51:17.893Z,82.10
2019-05-01T06:53:41.581Z,66.33
2019-05-01T06:56:07.080Z,73.10
2019-05-01T06:58:32.927Z,64.03
2019-05-01T07:00:58.406Z,63.13
2019-05-01T07:03:24.095Z,62.43
2019-05-01T07:05:54.412Z,58.80
2019-05-01T07:08:24.430Z,65.03
2019-05-01T07:10:46.607Z,65.40
2019-05-01T07:13:12.156Z,77.00
2019-05-01T07:15:37.851Z,72.53
2019-05-01T07:18:04.659Z,76.77
2019-05-01T07:20:51.379Z,73.93
2019-05-01T07:23:19.850Z,74.60
2019-05-01T07:25:45.445Z,83.93
2019-05-01T07:28:11.675Z,81.80
2019-05-01T07:30:54.924Z,74.40
2019-05-01T07:33:17.933Z,64.23
2019-05-01T07:35:45.730Z,62.03
2019-05-01T07:38:11.544Z,56.60
2019-05-01T07:40:37.709Z,59.30
2019-05-01T07:43:10.969Z,57.83
2019-05-01T07:45:54.457Z,48.53
2019-05-01T07:48:31.319Z,52.00
2019-05-01T07:50:56.769Z,57.47
2019-05-01T07:53:23.729Z,56.73
2019-05-01T07:55:52.705Z,56.60
2019-05-01T07:58:18.212Z,51.43
2019-05-01T08:00:52.145Z,56.87
2019-05-01T08:03:17.622Z,55.23
2019-05-01T08:05:45.455Z,54.10
2019-05-01T08:08:10.693Z,55.10
2019-05-01T08:10:36.130Z,52.03
2019-05-01T08:13:01.976Z,54.93
2019-05-01T08:15:32.395Z,56.27
2019-05-01T08:17:57.152Z,48.67
2019-05-01T08:20:31.584Z,55.60
2019-05-01T08:22:57.434Z,51.87
2019-05-01T08:25:22.811Z,53.83
2019-05-01T08:27:58.081Z,55.17
2019-05-01T08:30:42.638Z,54.27
2019-05-01T08:33:49.813Z,45.40
2019-05-01T08:36:13.495Z,51.27
2019-05-01T08:38:39.017Z,55.57
2019-05-01T08:41:04.534Z,52.90
2019-05-01T08:43:30.461Z,54.77
2019-05-01T08:46:21.075Z,50.63
2019-05-01T08:48:54.320Z,50.47
2019-05-01T08:51:19.784Z,48.30
2019-05-01T08:53:45.353Z,54.50
2019-05-01T08:56:11.077Z,55.47
2019-05-01T08:58:37.177Z,60.53
2019-05-01T09:01:05.124Z,51.97
2019-05-01T09:03:31.045Z,48.37
2019-05-01T09:05:57.365Z,49.70
2019-05-01T09:08:27.077Z,58.90
2019-05-01T09:10:54.780Z,48.73
2019-05-01T09:13:18.965Z,51.50
2019-05-01T09:15:48.281Z,52.57
2019-05-01T09:18:12.293Z,49.33
2019-05-01T09:20:39.523Z,51.23
2019-05-01T09:23:05.160Z,60.53
2019-05-01T09:25:38.082Z,56.60
2019-05-01T09:28:22.478Z,54.50
2019-05-01T09:31:01.552Z,68.50
2019-05-01T09:33:21.101Z,55.57
2019-05-01T09:35:46.793Z,56.43
2019-05-01T09:38:12.297Z,58.93
2019-05-01T09:40:37.756Z,52.50
2019-05-01T09:43:03.135Z,55.93
2019-05-01T09:45:28.699Z,59.27
2019-05-01T09:47:54.246Z,58.97
2019-05-01T09:50:19.671Z,56.93
2019-05-01T09:53:01.521Z,61.30
2019-05-01T09:55:45.870Z,73.83
2019-05-01T09:58:11.472Z,69.53
2019-05-01T10:00:37.274Z,72.03
2019-05-01T10:03:02.722Z,63.37
2019-05-01T10:05:29.234Z,58.60
2019-05-01T10:07:54.941Z,56.87
2019-05-01T10:10:20.572Z,61.27
2019-05-01T10:12:46.912Z,66.93
2019-05-01T10:15:13.624Z,61.83
2019-05-01T10:17:39.820Z,66.63
2019-05-01T10:20:05.924Z,64.10
2019-05-01T10:22:32.930Z,56.87
2019-05-01T10:24:58.746Z,58.17
2019-05-01T10:27:30.966Z,62.13
2019-05-01T10:30:13.222Z,60.13
2019-05-01T10:32:45.146Z,67.07
2019-05-01T10:35:26.863Z,68.03
2019-05-01T10:37:52.493Z,77.20
2019-05-01T10:40:18.338Z,68.87
2019-05-01T10:42:44.068Z,69.73
2019-05-01T10:45:09.883Z,61.57
2019-05-01T10:47:35.475Z,52.63
2019-05-01T10:50:01.201Z,51.80
2019-05-01T10:52:26.748Z,56.88
2019-05-01T10:54:52.312Z,58.33
2019-05-01T10:57:17.950Z,54.60
2019-05-01T10:59:43.556Z,55.40
2019-05-01T11:02:10.991Z,51.43
2019-05-01T11:04:37.041Z,53.20
2019-05-01T11:07:02.607Z,58.17
2019-05-01T11:09:28.167Z,56.53
2019-05-01T11:11:53.706Z,53.63
2019-05-01T11:14:19.390Z,48.10
2019-05-01T11:16:44.964Z,54.18
2019-05-01T11:19:10.506Z,45.67
2019-05-01T11:21:36.077Z,47.77
2019-05-01T11:24:02.050Z,56.57
2019-05-01T11:26:27.716Z,53.77
2019-05-01T11:28:53.331Z,52.03
2019-05-01T11:31:23.077Z,48.68
2019-05-01T11:34:08.342Z,50.43
2019-05-01T11:36:47.532Z,53.60
2019-05-01T11:39:26.534Z,53.00
2019-05-01T11:41:57.538Z,50.73
2019-05-01T11:44:23.564Z,52.20
2019-05-01T11:46:49.169Z,53.90
2019-05-01T11:49:14.719Z,56.03
2019-05-01T11:51:40.320Z,49.13
2019-05-01T11:54:06.126Z,51.23
2019-05-01T11:56:34.633Z,50.23
2019-05-01T11:59:00.227Z,51.68
2019-05-01T12:01:26.928Z,54.00
2019-05-01T12:03:52.416Z,52.13
2019-05-01T12:06:22.892Z,51.83
2019-05-01T12:08:45.287Z,55.35
2019-05-01T12:11:12.246Z,52.50
2019-05-01T12:13:43.970Z,52.13
2019-05-01T12:16:12.720Z,56.60
2019-05-01T12:18:38.113Z,53.55
2019-05-01T12:21:03.586Z,53.90
2019-05-01T12:23:29.584Z,51.58
2019-05-01T12:25:55.153Z,57.30
2019-05-01T12:28:20.736Z,52.60
2019-05-01T12:30:46.246Z,52.13
2019-05-01T12:33:11.864Z,56.85
2019-05-01T12:35:37.374Z,56.97
2019-05-01T12:38:04.099Z,53.85
2019-05-01T12:40:29.631Z,55.23
2019-05-01T12:42:55.231Z,51.58
2019-05-01T12:45:21.455Z,61.08
2019-05-01T12:47:50.012Z,63.17
2019-05-01T12:50:15.632Z,58.17
2019-05-01T12:52:58.661Z,59.23
2019-05-01T12:55:58.200Z,61.40
2019-05-01T12:58:23.782Z,60.48
2019-05-01T13:00:52.157Z,58.33
2019-05-01T13:03:17.662Z,56.68
2019-05-01T13:05:43.192Z,60.28
2019-05-01T13:08:08.676Z,59.15
2019-05-01T13:10:34.197Z,55.40
2019-05-01T13:12:59.711Z,53.95
2019-05-01T13:15:25.235Z,55.88
2019-05-01T13:17:51.394Z,59.38
2019-05-01T13:20:17.254Z,58.78
2019-05-01T13:22:42.988Z,54.50
2019-05-01T13:25:08.785Z,55.67
2019-05-01T13:27:41.808Z,58.00
2019-05-01T13:30:27.136Z,55.38
2019-05-01T13:32:53.645Z,60.45
2019-05-01T13:35:19.544Z,57.75
2019-05-01T13:37:45.082Z,61.73
2019-05-01T13:40:12.433Z,60.33
2019-05-01T13:42:38.176Z,60.25
2019-05-01T13:45:04.179Z,60.12
2019-05-01T13:47:29.726Z,57.67
2019-05-01T13:49:55.306Z,56.98
2019-05-01T13:52:20.764Z,57.48
2019-05-01T13:54:46.267Z,59.42
2019-05-01T13:57:12.040Z,60.33
2019-05-01T13:59:37.572Z,59.95
2019-05-01T14:02:03.149Z,57.90
2019-05-01T14:04:30.475Z,59.88
2019-05-01T14:06:59.184Z,54.48
2019-05-01T14:09:29.307Z,56.83
2019-05-01T14:11:55.007Z,56.10
2019-05-01T14:14:20.466Z,56.13
2019-05-01T14:16:45.960Z,57.10
2019-05-01T14:19:11.429Z,54.65
2019-05-01T14:21:42.379Z,55.73
2019-05-01T14:24:31.032Z,59.20
2019-05-01T14:26:56.503Z,58.48
2019-05-01T14:29:21.939Z,59.90
2019-05-01T14:31:47.392Z,56.28
2019-05-01T14:34:12.912Z,59.20
2019-05-01T14:36:38.277Z,62.38
2019-05-01T14:39:05.776Z,59.38
2019-05-01T14:41:36.146Z,53.15
2019-05-01T14:44:01.741Z,58.45
2019-05-01T14:46:27.223Z,59.77
2019-05-01T14:48:52.873Z,56.10
2019-05-01T14:51:21.451Z,58.92
2019-05-01T14:53:45.615Z,62.23
2019-05-01T14:56:11.551Z,60.03
2019-05-01T14:58:37.085Z,60.20
2019-05-01T15:01:02.592Z,59.03
2019-05-01T15:03:28.150Z,60.40
2019-05-01T15:05:53.649Z,58.83
2019-05-01T15:08:19.191Z,62.25
2019-05-01T15:10:44.639Z,63.25
2019-05-01T15:13:28.252Z,56.50
2019-05-01T15:16:00.037Z,62.33
2019-05-01T15:18:33.180Z,61.05
2019-05-01T15:20:58.840Z,60.08
2019-05-01T15:23:24.278Z,60.70
2019-05-01T15:25:50.004Z,60.05
2019-05-01T15:28:15.685Z,61.77
2019-05-01T15:30:41.167Z,60.23
2019-05-01T15:33:06.623Z,59.38
2019-05-01T15:35:35.254Z,64.20
2019-05-01T15:38:00.677Z,59.90
2019-05-01T15:40:31.969Z,60.85
2019-05-01T15:43:01.888Z,55.23
2019-05-01T15:45:27.387Z,60.08
2019-05-01T15:47:52.720Z,64.82
2019-05-01T15:50:18.424Z,60.78
2019-05-01T15:52:43.929Z,59.27
2019-05-01T15:55:09.928Z,61.05
2019-05-01T15:57:35.501Z,61.80
2019-05-01T16:00:01.079Z,62.15
2019-05-01T16:02:33.394Z,61.10
2019-05-01T16:05:00.840Z,64.15
2019-05-01T16:07:40.113Z,63.58
2019-05-01T16:10:09.129Z,63.98
2019-05-01T16:12:39.835Z,63.58
2019-05-01T16:15:09.402Z,65.35
2019-05-01T16:17:34.952Z,63.55
2019-05-01T16:20:01.069Z,67.03
2019-05-01T16:22:26.806Z,66.30
2019-05-01T16:24:52.999Z,65.65
2019-05-01T16:27:19.318Z,66.22
2019-05-01T16:29:44.815Z,64.85
2019-05-01T16:32:11.058Z,67.15
2019-05-01T16:34:37.252Z,64.12
2019-05-01T16:37:03.056Z,61.33
2019-05-01T16:39:50.259Z,65.92
2019-05-01T16:42:15.753Z,63.02
2019-05-01T16:44:41.240Z,61.73
2019-05-01T16:47:06.703Z,62.93
2019-05-01T16:49:32.193Z,62.55
2019-05-01T16:51:57.689Z,60.23
2019-05-01T16:54:23.267Z,64.82
2019-05-01T16:56:48.779Z,63.85
2019-05-01T16:59:14.288Z,70.65
2019-05-01T17:01:58.421Z,62.38
2019-05-01T17:04:32.620Z,60.83
2019-05-01T17:07:16.884Z,67.15
2019-05-01T17:10:10.207Z,62.20
2019-05-01T17:12:42.746Z,60.05
2019-05-01T17:15:10.663Z,69.10
2019-05-01T17:17:36.362Z,60.40
2019-05-01T17:20:01.903Z,61.02
2019-05-01T17:22:27.386Z,60.45
2019-05-01T17:24:52.804Z,67.20
2019-05-01T17:27:18.462Z,68.07
2019-05-01T17:29:43.887Z,62.98
2019-05-01T17:32:11.229Z,61.20
2019-05-01T17:34:36.986Z,66.25
2019-05-01T17:37:02.703Z,60.33
2019-05-01T17:39:28.361Z,64.17
2019-05-01T17:41:57.558Z,61.90
2019-05-01T17:44:25.362Z,62.03
2019-05-01T17:46:48.725Z,63.20
2019-05-01T17:49:14.609Z,64.03
2019-05-01T17:51:42.765Z,65.67
2019-05-01T17:54:08.095Z,66.85
2019-05-01T17:56:33.731Z,64.03
2019-05-01T17:58:59.926Z,59.48
2019-05-01T18:01:43.625Z,61.48
2019-05-01T18:04:24.124Z,61.00
2019-05-01T18:06:51.090Z,63.63
2019-05-01T18:09:17.883Z,57.03
2019-05-01T18:11:47.264Z,63.98
2019-05-01T18:14:11.621Z,60.58
2019-05-01T18:16:37.313Z,58.63
2019-05-01T18:19:03.246Z,61.02
2019-05-01T18:21:29.568Z,58.33
2019-05-01T18:24:14.269Z,56.28
2019-05-01T18:26:48.791Z,57.85
2019-05-01T18:29:23.924Z,60.10
2019-05-01T18:31:50.245Z,62.57
2019-05-01T18:34:16.074Z,65.40
2019-05-01T18:36:47.893Z,60.35
2019-05-01T18:39:22.075Z,56.35
2019-05-01T18:41:50.915Z,58.73
2019-05-01T18:44:17.012Z,58.05
2019-05-01T18:46:43.252Z,61.55
2019-05-01T18:49:09.163Z,62.67
2019-05-01T18:51:36.122Z,60.23
2019-05-01T18:54:02.527Z,67.00
2019-05-01T18:56:28.630Z,63.70
2019-05-01T18:58:55.706Z,64.17
2019-05-01T19:01:21.904Z,63.42
2019-05-01T19:03:48.151Z,61.00
2019-05-01T19:06:14.525Z,63.68
2019-05-01T19:08:40.785Z,62.53
2019-05-01T19:11:12.673Z,58.17
2019-05-01T19:13:36.137Z,66.42
2019-05-01T19:16:03.294Z,62.55
2019-05-01T19:18:30.925Z,61.00
2019-05-01T19:20:59.710Z,65.92
2019-05-01T19:23:27.740Z,65.60
2019-05-01T19:25:56.363Z,72.80
2019-05-01T19:28:23.128Z,71.47
2019-05-01T19:30:49.546Z,70.70
2019-05-01T19:33:15.697Z,69.22
2019-05-01T19:35:44.362Z,69.17
2019-05-01T19:38:11.211Z,69.37
2019-05-01T19:40:39.017Z,66.62
2019-05-01T19:43:06.289Z,68.85
2019-05-01T19:45:32.655Z,70.97
2019-05-01T19:47:59.555Z,68.40
2019-05-01T19:50:26.426Z,65.17
2019-05-01T19:52:52.751Z,68.75
2019-05-01T19:55:18.850Z,64.30
2019-05-01T19:57:45.287Z,66.55
2019-05-01T20:00:13.937Z,70.78
2019-05-01T20:02:40.707Z,72.80
2019-05-01T20:05:10.973Z,69.97
2019-05-01T20:07:36.754Z,70.87
2019-05-01T20:10:03.217Z,70.45
2019-05-01T20:12:29.951Z,72.87
2019-05-01T20:14:56.264Z,73.65
2019-05-01T20:17:22.981Z,76.60
2019-05-01T20:19:49.592Z,74.55
2019-05-01T20:22:16.212Z,74.75
2019-05-01T20:24:44.342Z,72.20
2019-05-01T20:27:10.578Z,83.22
2019-05-01T20:29:36.963Z,75.13
2019-05-01T20:32:03.400Z,75.83
2019-05-01T20:34:29.545Z,75.52
2019-05-01T20:36:56.084Z,73.87
2019-05-01T20:39:23.760Z,76.53
2019-05-01T20:41:54.039Z,74.80
2019-05-01T20:44:23.953Z,76.12
2019-05-01T20:46:49.511Z,75.87
2019-05-01T20:49:15.667Z,78.22
2019-05-01T20:51:41.659Z,74.20
2019-05-01T20:54:07.533Z,71.43
2019-05-01T20:56:42.056Z,81.05
2019-05-01T20:59:08.068Z,77.27
2019-05-01T21:01:34.027Z,72.60
2019-05-01T21:04:19.374Z,84.72
2019-05-01T21:06:43.750Z,75.03
2019-05-01T21:09:16.239Z,73.70
2019-05-01T21:11:47.507Z,76.90
2019-05-01T21:14:21.986Z,80.35
2019-05-01T21:16:39.679Z,81.83
2019-05-01T21:19:05.406Z,78.60
2019-05-01T21:21:31.033Z,87.60
2019-05-01T21:23:56.809Z,76.57
2019-05-01T21:26:23.411Z,83.47
2019-05-01T21:28:49.013Z,84.47
2019-05-01T21:31:14.572Z,78.50
2019-05-01T21:33:40.841Z,82.42
2019-05-01T21:36:08.589Z,84.15
2019-05-01T21:38:34.200Z,82.08
2019-05-01T21:40:59.651Z,77.82
2019-05-01T21:43:27.939Z,84.05
2019-05-01T21:45:53.467Z,78.37
2019-05-01T21:48:19.064Z,84.95
2019-05-01T21:50:44.492Z,80.33
2019-05-01T21:53:10.115Z,77.60
2019-05-01T21:55:36.249Z,87.45
2019-05-01T21:58:01.827Z,82.25
2019-05-01T22:00:29.690Z,83.37
2019-05-01T22:02:55.225Z,80.55
2019-05-01T22:05:20.806Z,79.25
2019-05-01T22:07:46.473Z,81.97
2019-05-01T22:10:12.605Z,78.90
2019-05-01T22:12:38.115Z,80.70
2019-05-01T22:15:11.027Z,77.10
2019-05-01T22:17:53.415Z,77.50
2019-05-01T22:20:23.724Z,76.17
2019-05-01T22:22:53.890Z,76.10
2019-05-01T22:25:26.835Z,75.90
2019-05-01T22:27:58.185Z,78.40
2019-05-01T22:30:30.530Z,80.90
2019-05-01T22:32:56.635Z,74.07
2019-05-01T22:35:24.715Z,77.90
2019-05-01T22:37:50.244Z,77.65
2019-05-01T22:40:17.975Z,80.37
2019-05-01T22:42:43.526Z,79.27
2019-05-01T22:45:11.212Z,79.15
2019-05-01T22:47:36.742Z,74.70
2019-05-01T22:50:02.218Z,78.65
2019-05-01T22:52:27.698Z,84.67
2019-05-01T22:54:53.156Z,76.37
2019-05-01T22:57:20.506Z,82.97
2019-05-01T22:59:46.052Z,75.90
2019-05-01T23:02:24.246Z,80.80
2019-05-01T23:04:52.066Z,79.00
2019-05-01T23:07:18.620Z,78.50
2019-05-01T23:09:44.189Z,79.40
2019-05-01T23:12:09.694Z,76.47
2019-05-01T23:14:35.601Z,76.62
2019-05-01T23:17:10.379Z,76.50
2019-05-01T23:19:35.853Z,85.67
2019-05-01T23:22:01.595Z,84.45
2019-05-01T23:24:27.073Z,87.33
2019-05-01T23:26:53.061Z,76.30
2019-05-01T23:29:18.641Z,76.13
2019-05-01T23:31:44.278Z,81.17
2019-05-01T23:34:09.805Z,82.00
2019-05-01T23:36:35.612Z,86.50
2019-05-01T23:39:01.174Z,73.70
2019-05-01T23:41:44.578Z,81.30
2019-05-01T23:43:58.210Z,76.60
2019-05-01T23:46:21.776Z,80.50
2019-05-01T23:48:47.251Z,80.10
2019-05-01T23:51:12.788Z,80.37
2019-05-01T23:53:38.227Z,79.70
2019-05-01T23:56:03.691Z,80.87
2019-05-01T23:58:29.410Z,82.37
